sensor_id;sensor_type;location;lat;lon;timestamp;P1;durP1;ratioP1;P2;durP2;ratioP2
52456;SDS011;38369;52.840;7.082;2022-10-22T00:01:16;17.50;;;13.32;;
52456;SDS011;38369;52.840;7.082;2022-10-22T00:03:44;20.67;;;13.23;;
52456;SDS011;38369;52.840;7.082;2022-10-22T00:06:10;18.55;;;12.70;;
52456;SDS011;38369;52.840;7.082;2022-10-22T00:08:36;22.52;;;11.73;;
52456;SDS011;38369;52.840;7.082;2022-10-22T00:11:12;21.20;;;13.05;;
52456;SDS011;38369;52.840;7.082;2022-10-22T00:13:39;15.57;;;11.70;;
52456;SDS011;38369;52.840;7.082;2022-10-22T00:16:05;19.80;;;12.27;;
52456;SDS011;38369;52.840;7.082;2022-10-22T00:18:31;18.83;;;12.32;;
52456;SDS011;38369;52.840;7.082;2022-10-22T00:20:57;33.20;;;13.27;;
52456;SDS011;38369;52.840;7.082;2022-10-22T00:23:23;16.77;;;12.68;;
52456;SDS011;38369;52.840;7.082;2022-10-22T00:25:49;16.25;;;12.02;;
52456;SDS011;38369;52.840;7.082;2022-10-22T00:28:17;19.23;;;12.20;;
52456;SDS011;38369;52.840;7.082;2022-10-22T00:30:43;16.08;;;11.52;;
52456;SDS011;38369;52.840;7.082;2022-10-22T00:33:09;16.10;;;11.57;;
52456;SDS011;38369;52.840;7.082;2022-10-22T00:35:35;16.85;;;11.48;;
52456;SDS011;38369;52.840;7.082;2022-10-22T00:38:01;16.10;;;11.32;;
52456;SDS011;38369;52.840;7.082;2022-10-22T00:40:27;15.90;;;11.23;;
52456;SDS011;38369;52.840;7.082;2022-10-22T00:42:53;16.17;;;11.77;;
52456;SDS011;38369;52.840;7.082;2022-10-22T00:45:24;18.83;;;11.32;;
52456;SDS011;38369;52.840;7.082;2022-10-22T00:50:41;16.40;;;11.68;;
52456;SDS011;38369;52.840;7.082;2022-10-22T00:53:06;18.88;;;11.90;;
52456;SDS011;38369;52.840;7.082;2022-10-22T00:55:33;17.02;;;11.32;;
52456;SDS011;38369;52.840;7.082;2022-10-22T00:57:59;15.50;;;11.05;;
52456;SDS011;38369;52.840;7.082;2022-10-22T01:00:26;15.63;;;10.85;;
52456;SDS011;38369;52.840;7.082;2022-10-22T01:02:52;17.63;;;11.60;;
52456;SDS011;38369;52.840;7.082;2022-10-22T01:05:19;15.25;;;10.45;;
52456;SDS011;38369;52.840;7.082;2022-10-22T01:07:47;16.58;;;10.68;;
52456;SDS011;38369;52.840;7.082;2022-10-22T01:15:27;16.25;;;12.27;;
52456;SDS011;38369;52.840;7.082;2022-10-22T01:17:56;16.70;;;11.15;;
52456;SDS011;38369;52.840;7.082;2022-10-22T01:28:19;16.30;;;11.88;;
52456;SDS011;38369;52.840;7.082;2022-10-22T01:30:46;13.57;;;11.23;;
52456;SDS011;38369;52.840;7.082;2022-10-22T01:33:14;15.52;;;11.48;;
52456;SDS011;38369;52.840;7.082;2022-10-22T01:35:42;15.13;;;10.93;;
52456;SDS011;38369;52.840;7.082;2022-10-22T01:38:11;18.35;;;11.10;;
52456;SDS011;38369;52.840;7.082;2022-10-22T01:40:37;15.23;;;10.57;;
52456;SDS011;38369;52.840;7.082;2022-10-22T01:43:05;15.38;;;11.07;;
52456;SDS011;38369;52.840;7.082;2022-10-22T01:45:35;20.33;;;11.57;;
52456;SDS011;38369;52.840;7.082;2022-10-22T01:48:08;14.60;;;10.95;;
52456;SDS011;38369;52.840;7.082;2022-10-22T01:53:12;12.88;;;10.05;;
52456;SDS011;38369;52.840;7.082;2022-10-22T01:58:35;18.05;;;10.55;;
52456;SDS011;38369;52.840;7.082;2022-10-22T02:01:07;13.52;;;9.80;;
52456;SDS011;38369;52.840;7.082;2022-10-22T02:03:44;15.88;;;8.68;;
52456;SDS011;38369;52.840;7.082;2022-10-22T02:06:13;12.63;;;9.10;;
52456;SDS011;38369;52.840;7.082;2022-10-22T02:08:41;17.05;;;9.40;;
52456;SDS011;38369;52.840;7.082;2022-10-22T02:11:08;14.85;;;9.73;;
52456;SDS011;38369;52.840;7.082;2022-10-22T02:13:35;17.90;;;9.18;;
52456;SDS011;38369;52.840;7.082;2022-10-22T02:16:05;15.15;;;9.25;;
52456;SDS011;38369;52.840;7.082;2022-10-22T02:18:32;12.98;;;9.85;;
52456;SDS011;38369;52.840;7.082;2022-10-22T02:21:00;20.98;;;9.70;;
52456;SDS011;38369;52.840;7.082;2022-10-22T02:23:26;18.73;;;9.32;;
52456;SDS011;38369;52.840;7.082;2022-10-22T02:25:55;21.08;;;9.48;;
52456;SDS011;38369;52.840;7.082;2022-10-22T02:28:26;15.77;;;10.32;;
52456;SDS011;38369;52.840;7.082;2022-10-22T02:30:55;14.60;;;9.60;;
52456;SDS011;38369;52.840;7.082;2022-10-22T02:33:25;12.93;;;10.23;;
52456;SDS011;38369;52.840;7.082;2022-10-22T02:35:53;17.42;;;11.40;;
52456;SDS011;38369;52.840;7.082;2022-10-22T02:38:20;13.10;;;10.27;;
52456;SDS011;38369;52.840;7.082;2022-10-22T02:40:47;16.77;;;11.32;;
52456;SDS011;38369;52.840;7.082;2022-10-22T02:43:13;15.52;;;10.50;;
52456;SDS011;38369;52.840;7.082;2022-10-22T02:45:39;15.13;;;10.15;;
52456;SDS011;38369;52.840;7.082;2022-10-22T02:48:05;14.70;;;10.20;;
52456;SDS011;38369;52.840;7.082;2022-10-22T02:50:31;16.05;;;10.52;;
52456;SDS011;38369;52.840;7.082;2022-10-22T02:52:57;16.40;;;10.60;;
52456;SDS011;38369;52.840;7.082;2022-10-22T02:55:23;16.13;;;9.65;;
52456;SDS011;38369;52.840;7.082;2022-10-22T02:57:49;16.65;;;9.75;;
52456;SDS011;38369;52.840;7.082;2022-10-22T03:00:16;15.15;;;10.75;;
52456;SDS011;38369;52.840;7.082;2022-10-22T03:02:42;16.42;;;11.50;;
52456;SDS011;38369;52.840;7.082;2022-10-22T03:05:08;17.83;;;11.82;;
52456;SDS011;38369;52.840;7.082;2022-10-22T03:07:34;19.17;;;11.52;;
52456;SDS011;38369;52.840;7.082;2022-10-22T03:10:00;21.25;;;11.30;;
52456;SDS011;38369;52.840;7.082;2022-10-22T03:12:26;19.65;;;11.35;;
52456;SDS011;38369;52.840;7.082;2022-10-22T03:14:52;18.58;;;10.20;;
52456;SDS011;38369;52.840;7.082;2022-10-22T03:17:18;21.05;;;12.57;;
52456;SDS011;38369;52.840;7.082;2022-10-22T03:19:44;18.73;;;11.18;;
52456;SDS011;38369;52.840;7.082;2022-10-22T03:22:12;16.63;;;11.10;;
52456;SDS011;38369;52.840;7.082;2022-10-22T03:24:41;17.20;;;12.20;;
52456;SDS011;38369;52.840;7.082;2022-10-22T03:27:09;19.10;;;12.48;;
52456;SDS011;38369;52.840;7.082;2022-10-22T03:29:36;18.23;;;12.98;;
52456;SDS011;38369;52.840;7.082;2022-10-22T03:32:03;19.08;;;11.90;;
52456;SDS011;38369;52.840;7.082;2022-10-22T03:34:29;17.45;;;11.13;;
52456;SDS011;38369;52.840;7.082;2022-10-22T03:36:56;24.13;;;11.18;;
52456;SDS011;38369;52.840;7.082;2022-10-22T03:39:23;19.05;;;11.25;;
52456;SDS011;38369;52.840;7.082;2022-10-22T03:41:49;17.17;;;12.00;;
52456;SDS011;38369;52.840;7.082;2022-10-22T03:44:16;20.42;;;12.32;;
52456;SDS011;38369;52.840;7.082;2022-10-22T03:46:42;18.52;;;12.52;;
52456;SDS011;38369;52.840;7.082;2022-10-22T03:49:08;19.88;;;13.02;;
52456;SDS011;38369;52.840;7.082;2022-10-22T03:51:34;22.90;;;12.60;;
52456;SDS011;38369;52.840;7.082;2022-10-22T03:54:01;19.88;;;13.13;;
52456;SDS011;38369;52.840;7.082;2022-10-22T03:56:27;22.08;;;13.10;;
52456;SDS011;38369;52.840;7.082;2022-10-22T03:58:58;22.45;;;14.05;;
52456;SDS011;38369;52.840;7.082;2022-10-22T04:01:24;19.92;;;14.30;;
52456;SDS011;38369;52.840;7.082;2022-10-22T04:03:51;22.13;;;13.73;;
52456;SDS011;38369;52.840;7.082;2022-10-22T04:06:17;22.90;;;14.73;;
52456;SDS011;38369;52.840;7.082;2022-10-22T04:08:43;23.40;;;13.68;;
52456;SDS011;38369;52.840;7.082;2022-10-22T04:11:10;22.52;;;13.52;;
52456;SDS011;38369;52.840;7.082;2022-10-22T04:13:36;28.15;;;14.13;;
52456;SDS011;38369;52.840;7.082;2022-10-22T04:18:35;20.58;;;14.35;;
52456;SDS011;38369;52.840;7.082;2022-10-22T04:21:01;23.38;;;13.60;;
52456;SDS011;38369;52.840;7.082;2022-10-22T04:23:27;22.23;;;14.00;;
52456;SDS011;38369;52.840;7.082;2022-10-22T04:25:57;25.17;;;14.73;;
52456;SDS011;38369;52.840;7.082;2022-10-22T04:28:23;21.27;;;14.00;;
52456;SDS011;38369;52.840;7.082;2022-10-22T04:30:49;25.02;;;13.88;;
52456;SDS011;38369;52.840;7.082;2022-10-22T04:33:15;26.55;;;13.55;;
52456;SDS011;38369;52.840;7.082;2022-10-22T04:35:41;21.25;;;14.07;;
52456;SDS011;38369;52.840;7.082;2022-10-22T04:38:07;22.08;;;13.68;;
52456;SDS011;38369;52.840;7.082;2022-10-22T04:40:34;22.52;;;13.50;;
52456;SDS011;38369;52.840;7.082;2022-10-22T04:43:00;25.33;;;14.70;;
52456;SDS011;38369;52.840;7.082;2022-10-22T04:45:26;24.60;;;14.68;;
52456;SDS011;38369;52.840;7.082;2022-10-22T04:47:52;21.65;;;14.45;;
52456;SDS011;38369;52.840;7.082;2022-10-22T04:50:18;20.35;;;13.85;;
52456;SDS011;38369;52.840;7.082;2022-10-22T04:52:44;27.55;;;15.27;;
52456;SDS011;38369;52.840;7.082;2022-10-22T04:55:10;22.35;;;14.05;;
52456;SDS011;38369;52.840;7.082;2022-10-22T04:57:36;27.35;;;15.48;;
52456;SDS011;38369;52.840;7.082;2022-10-22T05:00:02;23.63;;;14.40;;
52456;SDS011;38369;52.840;7.082;2022-10-22T05:02:28;25.33;;;15.00;;
52456;SDS011;38369;52.840;7.082;2022-10-22T05:04:54;23.10;;;14.70;;
52456;SDS011;38369;52.840;7.082;2022-10-22T05:07:20;23.27;;;14.60;;
52456;SDS011;38369;52.840;7.082;2022-10-22T05:09:48;29.17;;;17.67;;
52456;SDS011;38369;52.840;7.082;2022-10-22T05:12:14;26.92;;;15.63;;
52456;SDS011;38369;52.840;7.082;2022-10-22T05:14:40;24.77;;;15.10;;
52456;SDS011;38369;52.840;7.082;2022-10-22T05:17:06;21.45;;;13.80;;
52456;SDS011;38369;52.840;7.082;2022-10-22T05:19:32;25.05;;;14.38;;
52456;SDS011;38369;52.840;7.082;2022-10-22T05:21:59;22.42;;;14.52;;
52456;SDS011;38369;52.840;7.082;2022-10-22T05:24:26;23.27;;;15.00;;
52456;SDS011;38369;52.840;7.082;2022-10-22T05:26:53;25.27;;;14.80;;
52456;SDS011;38369;52.840;7.082;2022-10-22T05:29:20;21.17;;;14.77;;
52456;SDS011;38369;52.840;7.082;2022-10-22T05:31:46;24.42;;;14.57;;
52456;SDS011;38369;52.840;7.082;2022-10-22T05:34:13;22.80;;;14.30;;
52456;SDS011;38369;52.840;7.082;2022-10-22T05:36:39;23.98;;;14.57;;
52456;SDS011;38369;52.840;7.082;2022-10-22T05:39:05;24.00;;;15.45;;
52456;SDS011;38369;52.840;7.082;2022-10-22T05:41:31;25.52;;;13.82;;
52456;SDS011;38369;52.840;7.082;2022-10-22T05:43:57;27.25;;;16.17;;
52456;SDS011;38369;52.840;7.082;2022-10-22T05:46:26;21.33;;;14.32;;
52456;SDS011;38369;52.840;7.082;2022-10-22T05:48:56;26.15;;;14.88;;
52456;SDS011;38369;52.840;7.082;2022-10-22T05:51:23;27.50;;;16.92;;
52456;SDS011;38369;52.840;7.082;2022-10-22T05:53:51;28.05;;;15.90;;
52456;SDS011;38369;52.840;7.082;2022-10-22T05:56:17;25.77;;;14.07;;
52456;SDS011;38369;52.840;7.082;2022-10-22T05:58:43;24.90;;;14.57;;
52456;SDS011;38369;52.840;7.082;2022-10-22T06:01:14;25.38;;;15.18;;
52456;SDS011;38369;52.840;7.082;2022-10-22T06:03:40;23.08;;;14.68;;
52456;SDS011;38369;52.840;7.082;2022-10-22T06:06:19;28.27;;;16.15;;
52456;SDS011;38369;52.840;7.082;2022-10-22T06:08:46;27.10;;;13.23;;
52456;SDS011;38369;52.840;7.082;2022-10-22T06:11:13;36.13;;;15.63;;
52456;SDS011;38369;52.840;7.082;2022-10-22T06:13:39;24.60;;;15.82;;
52456;SDS011;38369;52.840;7.082;2022-10-22T06:16:05;21.42;;;14.23;;
52456;SDS011;38369;52.840;7.082;2022-10-22T06:18:31;20.25;;;13.95;;
52456;SDS011;38369;52.840;7.082;2022-10-22T06:21:02;23.25;;;14.60;;
52456;SDS011;38369;52.840;7.082;2022-10-22T06:23:28;20.70;;;14.60;;
52456;SDS011;38369;52.840;7.082;2022-10-22T06:25:55;23.67;;;14.43;;
52456;SDS011;38369;52.840;7.082;2022-10-22T06:28:21;32.95;;;14.10;;
52456;SDS011;38369;52.840;7.082;2022-10-22T06:30:47;21.75;;;13.57;;
52456;SDS011;38369;52.840;7.082;2022-10-22T06:33:13;23.80;;;13.80;;
52456;SDS011;38369;52.840;7.082;2022-10-22T06:35:39;20.13;;;13.65;;
52456;SDS011;38369;52.840;7.082;2022-10-22T06:38:05;21.77;;;14.50;;
52456;SDS011;38369;52.840;7.082;2022-10-22T06:40:32;24.20;;;14.55;;
52456;SDS011;38369;52.840;7.082;2022-10-22T06:42:58;18.85;;;13.93;;
52456;SDS011;38369;52.840;7.082;2022-10-22T06:45:24;21.25;;;14.02;;
52456;SDS011;38369;52.840;7.082;2022-10-22T06:47:51;21.13;;;14.00;;
52456;SDS011;38369;52.840;7.082;2022-10-22T06:50:17;28.20;;;14.68;;
52456;SDS011;38369;52.840;7.082;2022-10-22T06:52:43;24.33;;;13.98;;
52456;SDS011;38369;52.840;7.082;2022-10-22T06:55:10;22.42;;;14.00;;
52456;SDS011;38369;52.840;7.082;2022-10-22T06:57:36;27.00;;;14.82;;
52456;SDS011;38369;52.840;7.082;2022-10-22T07:00:03;21.98;;;12.57;;
52456;SDS011;38369;52.840;7.082;2022-10-22T07:02:29;20.95;;;14.25;;
52456;SDS011;38369;52.840;7.082;2022-10-22T07:04:55;22.40;;;13.52;;
52456;SDS011;38369;52.840;7.082;2022-10-22T07:07:21;20.58;;;11.93;;
52456;SDS011;38369;52.840;7.082;2022-10-22T07:09:47;18.02;;;13.40;;
52456;SDS011;38369;52.840;7.082;2022-10-22T07:12:14;17.83;;;11.82;;
52456;SDS011;38369;52.840;7.082;2022-10-22T07:14:40;21.52;;;13.15;;
52456;SDS011;38369;52.840;7.082;2022-10-22T07:17:06;18.88;;;12.55;;
52456;SDS011;38369;52.840;7.082;2022-10-22T07:19:32;19.75;;;13.50;;
52456;SDS011;38369;52.840;7.082;2022-10-22T07:21:58;22.27;;;12.43;;
52456;SDS011;38369;52.840;7.082;2022-10-22T07:24:24;20.63;;;13.02;;
52456;SDS011;38369;52.840;7.082;2022-10-22T07:26:50;21.05;;;12.07;;
52456;SDS011;38369;52.840;7.082;2022-10-22T07:29:16;21.70;;;12.85;;
52456;SDS011;38369;52.840;7.082;2022-10-22T07:31:42;20.80;;;12.90;;
52456;SDS011;38369;52.840;7.082;2022-10-22T07:34:09;24.67;;;12.35;;
52456;SDS011;38369;52.840;7.082;2022-10-22T07:36:35;18.45;;;13.05;;
52456;SDS011;38369;52.840;7.082;2022-10-22T07:39:01;20.10;;;11.80;;
52456;SDS011;38369;52.840;7.082;2022-10-22T07:41:27;20.77;;;12.18;;
52456;SDS011;38369;52.840;7.082;2022-10-22T07:43:55;19.85;;;10.82;;
52456;SDS011;38369;52.840;7.082;2022-10-22T07:46:21;21.30;;;11.90;;
52456;SDS011;38369;52.840;7.082;2022-10-22T07:48:47;19.45;;;12.45;;
52456;SDS011;38369;52.840;7.082;2022-10-22T07:51:13;20.17;;;11.10;;
52456;SDS011;38369;52.840;7.082;2022-10-22T07:53:40;21.40;;;11.32;;
52456;SDS011;38369;52.840;7.082;2022-10-22T07:56:06;19.88;;;11.90;;
52456;SDS011;38369;52.840;7.082;2022-10-22T07:58:32;20.88;;;11.93;;
52456;SDS011;38369;52.840;7.082;2022-10-22T08:00:59;21.55;;;11.45;;
52456;SDS011;38369;52.840;7.082;2022-10-22T08:03:26;17.30;;;11.02;;
52456;SDS011;38369;52.840;7.082;2022-10-22T08:05:52;20.77;;;12.10;;
52456;SDS011;38369;52.840;7.082;2022-10-22T08:08:19;17.23;;;10.73;;
52456;SDS011;38369;52.840;7.082;2022-10-22T08:10:46;20.88;;;11.77;;
52456;SDS011;38369;52.840;7.082;2022-10-22T08:13:12;20.27;;;10.98;;
52456;SDS011;38369;52.840;7.082;2022-10-22T08:15:38;14.75;;;9.65;;
52456;SDS011;38369;52.840;7.082;2022-10-22T08:18:04;23.30;;;10.90;;
52456;SDS011;38369;52.840;7.082;2022-10-22T08:20:30;18.05;;;9.45;;
52456;SDS011;38369;52.840;7.082;2022-10-22T08:22:56;15.68;;;9.55;;
52456;SDS011;38369;52.840;7.082;2022-10-22T08:25:23;15.10;;;9.82;;
52456;SDS011;38369;52.840;7.082;2022-10-22T08:27:50;17.98;;;9.95;;
52456;SDS011;38369;52.840;7.082;2022-10-22T08:30:16;13.65;;;9.25;;
52456;SDS011;38369;52.840;7.082;2022-10-22T08:32:42;15.88;;;9.45;;
52456;SDS011;38369;52.840;7.082;2022-10-22T08:35:08;15.35;;;9.02;;
52456;SDS011;38369;52.840;7.082;2022-10-22T08:37:34;17.73;;;9.35;;
52456;SDS011;38369;52.840;7.082;2022-10-22T08:40:00;12.80;;;7.95;;
52456;SDS011;38369;52.840;7.082;2022-10-22T08:49:51;16.48;;;8.65;;
52456;SDS011;38369;52.840;7.082;2022-10-22T08:52:18;15.45;;;7.63;;
52456;SDS011;38369;52.840;7.082;2022-10-22T08:59:45;15.13;;;6.63;;
52456;SDS011;38369;52.840;7.082;2022-10-22T09:02:27;12.00;;;7.43;;
52456;SDS011;38369;52.840;7.082;2022-10-22T09:04:59;17.90;;;8.10;;
52456;SDS011;38369;52.840;7.082;2022-10-22T09:07:27;13.10;;;7.38;;
52456;SDS011;38369;52.840;7.082;2022-10-22T09:09:53;19.50;;;7.85;;
52456;SDS011;38369;52.840;7.082;2022-10-22T09:12:19;17.50;;;8.13;;
52456;SDS011;38369;52.840;7.082;2022-10-22T09:14:47;19.17;;;8.07;;
52456;SDS011;38369;52.840;7.082;2022-10-22T09:22:51;17.08;;;7.68;;
52456;SDS011;38369;52.840;7.082;2022-10-22T09:25:27;20.50;;;7.30;;
52456;SDS011;38369;52.840;7.082;2022-10-22T09:27:54;15.80;;;7.22;;
52456;SDS011;38369;52.840;7.082;2022-10-22T09:30:26;15.45;;;6.25;;
52456;SDS011;38369;52.840;7.082;2022-10-22T09:32:55;12.20;;;6.68;;
52456;SDS011;38369;52.840;7.082;2022-10-22T09:35:24;14.40;;;6.32;;
52456;SDS011;38369;52.840;7.082;2022-10-22T09:37:52;20.33;;;7.07;;
52456;SDS011;38369;52.840;7.082;2022-10-22T09:40:18;20.20;;;6.28;;
52456;SDS011;38369;52.840;7.082;2022-10-22T09:42:44;12.73;;;6.30;;
52456;SDS011;38369;52.840;7.082;2022-10-22T09:45:15;11.85;;;5.28;;
52456;SDS011;38369;52.840;7.082;2022-10-22T09:47:41;14.98;;;5.70;;
52456;SDS011;38369;52.840;7.082;2022-10-22T09:50:18;10.25;;;5.07;;
52456;SDS011;38369;52.840;7.082;2022-10-22T09:52:45;10.85;;;5.63;;
52456;SDS011;38369;52.840;7.082;2022-10-22T09:55:20;12.63;;;5.65;;
52456;SDS011;38369;52.840;7.082;2022-10-22T09:57:51;11.25;;;5.43;;
52456;SDS011;38369;52.840;7.082;2022-10-22T10:00:18;21.33;;;6.28;;
52456;SDS011;38369;52.840;7.082;2022-10-22T10:02:44;12.68;;;5.60;;
52456;SDS011;38369;52.840;7.082;2022-10-22T10:05:17;16.40;;;5.53;;
52456;SDS011;38369;52.840;7.082;2022-10-22T10:07:43;17.98;;;5.30;;
52456;SDS011;38369;52.840;7.082;2022-10-22T10:10:20;15.70;;;5.60;;
52456;SDS011;38369;52.840;7.082;2022-10-22T10:12:56;12.38;;;5.00;;
52456;SDS011;38369;52.840;7.082;2022-10-22T10:15:27;11.60;;;5.10;;
52456;SDS011;38369;52.840;7.082;2022-10-22T10:23:09;13.48;;;4.85;;
52456;SDS011;38369;52.840;7.082;2022-10-22T10:25:42;16.67;;;5.03;;
52456;SDS011;38369;52.840;7.082;2022-10-22T10:28:16;14.48;;;4.80;;
52456;SDS011;38369;52.840;7.082;2022-10-22T10:30:50;10.57;;;5.13;;
52456;SDS011;38369;52.840;7.082;2022-10-22T10:35:49;11.93;;;4.93;;
52456;SDS011;38369;52.840;7.082;2022-10-22T10:38:31;18.02;;;5.00;;
52456;SDS011;38369;52.840;7.082;2022-10-22T10:46:17;15.55;;;5.45;;
52456;SDS011;38369;52.840;7.082;2022-10-22T10:48:48;15.93;;;6.03;;
52456;SDS011;38369;52.840;7.082;2022-10-22T10:53:50;21.15;;;6.55;;
52456;SDS011;38369;52.840;7.082;2022-10-22T10:56:37;9.90;;;4.57;;
52456;SDS011;38369;52.840;7.082;2022-10-22T11:01:40;16.58;;;5.25;;
52456;SDS011;38369;52.840;7.082;2022-10-22T11:04:27;13.93;;;5.15;;
52456;SDS011;38369;52.840;7.082;2022-10-22T11:07:00;12.10;;;4.97;;
52456;SDS011;38369;52.840;7.082;2022-10-22T11:09:35;11.98;;;5.70;;
52456;SDS011;38369;52.840;7.082;2022-10-22T11:12:08;10.30;;;4.80;;
52456;SDS011;38369;52.840;7.082;2022-10-22T11:17:13;13.15;;;5.20;;
52456;SDS011;38369;52.840;7.082;2022-10-22T11:22:24;10.93;;;4.82;;
52456;SDS011;38369;52.840;7.082;2022-10-22T11:25:14;11.40;;;5.53;;
52456;SDS011;38369;52.840;7.082;2022-10-22T11:27:38;11.45;;;5.72;;
52456;SDS011;38369;52.840;7.082;2022-10-22T11:30:14;15.00;;;5.57;;
52456;SDS011;38369;52.840;7.082;2022-10-22T11:32:41;11.25;;;4.85;;
52456;SDS011;38369;52.840;7.082;2022-10-22T11:35:13;13.35;;;4.40;;
52456;SDS011;38369;52.840;7.082;2022-10-22T11:37:40;15.00;;;5.38;;
52456;SDS011;38369;52.840;7.082;2022-10-22T11:40:13;14.35;;;5.03;;
52456;SDS011;38369;52.840;7.082;2022-10-22T11:42:44;15.40;;;5.88;;
52456;SDS011;38369;52.840;7.082;2022-10-22T11:50:25;8.85;;;5.20;;
52456;SDS011;38369;52.840;7.082;2022-10-22T11:58:00;12.95;;;6.47;;
52456;SDS011;38369;52.840;7.082;2022-10-22T12:00:31;12.07;;;6.60;;
52456;SDS011;38369;52.840;7.082;2022-10-22T12:03:20;11.07;;;6.32;;
52456;SDS011;38369;52.840;7.082;2022-10-22T12:11:14;11.60;;;6.45;;
52456;SDS011;38369;52.840;7.082;2022-10-22T12:16:27;12.85;;;5.80;;
52456;SDS011;38369;52.840;7.082;2022-10-22T12:19:00;12.25;;;6.38;;
52456;SDS011;38369;52.840;7.082;2022-10-22T12:21:27;8.70;;;6.45;;
52456;SDS011;38369;52.840;7.082;2022-10-22T12:23:53;14.20;;;7.80;;
52456;SDS011;38369;52.840;7.082;2022-10-22T12:26:27;13.32;;;6.72;;
52456;SDS011;38369;52.840;7.082;2022-10-22T12:28:57;20.45;;;8.73;;
52456;SDS011;38369;52.840;7.082;2022-10-22T12:31:24;11.38;;;6.85;;
52456;SDS011;38369;52.840;7.082;2022-10-22T12:33:56;14.13;;;6.57;;
52456;SDS011;38369;52.840;7.082;2022-10-22T12:36:26;12.48;;;7.28;;
52456;SDS011;38369;52.840;7.082;2022-10-22T12:38:53;11.85;;;6.55;;
52456;SDS011;38369;52.840;7.082;2022-10-22T12:41:20;14.45;;;7.20;;
52456;SDS011;38369;52.840;7.082;2022-10-22T12:43:46;17.90;;;6.45;;
52456;SDS011;38369;52.840;7.082;2022-10-22T12:46:13;13.68;;;6.82;;
52456;SDS011;38369;52.840;7.082;2022-10-22T12:48:41;13.35;;;6.05;;
52456;SDS011;38369;52.840;7.082;2022-10-22T12:51:08;12.65;;;6.57;;
52456;SDS011;38369;52.840;7.082;2022-10-22T12:53:35;13.63;;;6.25;;
52456;SDS011;38369;52.840;7.082;2022-10-22T12:56:05;11.90;;;6.00;;
52456;SDS011;38369;52.840;7.082;2022-10-22T12:58:39;12.13;;;6.13;;
52456;SDS011;38369;52.840;7.082;2022-10-22T13:01:08;11.88;;;5.78;;
52456;SDS011;38369;52.840;7.082;2022-10-22T13:03:38;15.80;;;5.43;;
52456;SDS011;38369;52.840;7.082;2022-10-22T13:17:05;10.20;;;4.45;;
52456;SDS011;38369;52.840;7.082;2022-10-22T13:19:35;12.25;;;4.93;;
52456;SDS011;38369;52.840;7.082;2022-10-22T13:22:02;10.77;;;5.15;;
52456;SDS011;38369;52.840;7.082;2022-10-22T13:24:28;7.18;;;4.40;;
52456;SDS011;38369;52.840;7.082;2022-10-22T13:26:55;12.05;;;5.68;;
52456;SDS011;38369;52.840;7.082;2022-10-22T13:29:21;11.70;;;5.07;;
52456;SDS011;38369;52.840;7.082;2022-10-22T13:31:49;10.63;;;4.57;;
52456;SDS011;38369;52.840;7.082;2022-10-22T13:34:17;12.20;;;4.65;;
52456;SDS011;38369;52.840;7.082;2022-10-22T13:36:44;7.15;;;4.85;;
52456;SDS011;38369;52.840;7.082;2022-10-22T13:39:21;11.15;;;4.00;;
52456;SDS011;38369;52.840;7.082;2022-10-22T13:41:47;12.27;;;5.07;;
52456;SDS011;38369;52.840;7.082;2022-10-22T13:44:16;10.27;;;4.17;;
52456;SDS011;38369;52.840;7.082;2022-10-22T13:46:43;12.85;;;4.90;;
52456;SDS011;38369;52.840;7.082;2022-10-22T13:49:14;8.63;;;4.03;;
52456;SDS011;38369;52.840;7.082;2022-10-22T13:51:40;8.82;;;4.05;;
52456;SDS011;38369;52.840;7.082;2022-10-22T13:54:20;9.82;;;4.10;;
52456;SDS011;38369;52.840;7.082;2022-10-22T13:56:47;8.88;;;4.10;;
52456;SDS011;38369;52.840;7.082;2022-10-22T13:59:13;12.90;;;4.85;;
52456;SDS011;38369;52.840;7.082;2022-10-22T14:01:39;8.65;;;4.25;;
52456;SDS011;38369;52.840;7.082;2022-10-22T14:04:05;10.38;;;4.03;;
52456;SDS011;38369;52.840;7.082;2022-10-22T14:06:32;14.60;;;4.40;;
52456;SDS011;38369;52.840;7.082;2022-10-22T14:09:00;10.95;;;4.55;;
52456;SDS011;38369;52.840;7.082;2022-10-22T14:11:26;12.32;;;3.90;;
52456;SDS011;38369;52.840;7.082;2022-10-22T14:13:54;10.98;;;4.00;;
52456;SDS011;38369;52.840;7.082;2022-10-22T14:16:25;15.70;;;4.65;;
52456;SDS011;38369;52.840;7.082;2022-10-22T14:18:51;15.68;;;5.30;;
52456;SDS011;38369;52.840;7.082;2022-10-22T14:21:17;7.57;;;4.25;;
52456;SDS011;38369;52.840;7.082;2022-10-22T14:23:44;11.45;;;4.07;;
52456;SDS011;38369;52.840;7.082;2022-10-22T14:26:19;7.55;;;3.80;;
52456;SDS011;38369;52.840;7.082;2022-10-22T14:28:46;9.75;;;4.72;;
52456;SDS011;38369;52.840;7.082;2022-10-22T14:31:12;9.77;;;3.53;;
52456;SDS011;38369;52.840;7.082;2022-10-22T14:33:38;6.93;;;3.55;;
52456;SDS011;38369;52.840;7.082;2022-10-22T14:36:04;9.52;;;3.83;;
52456;SDS011;38369;52.840;7.082;2022-10-22T14:38:30;7.78;;;3.45;;
52456;SDS011;38369;52.840;7.082;2022-10-22T14:40:58;7.57;;;3.35;;
52456;SDS011;38369;52.840;7.082;2022-10-22T14:43:25;11.68;;;3.53;;
52456;SDS011;38369;52.840;7.082;2022-10-22T14:45:51;12.35;;;4.47;;
52456;SDS011;38369;52.840;7.082;2022-10-22T14:48:18;9.23;;;3.88;;
52456;SDS011;38369;52.840;7.082;2022-10-22T14:50:44;8.60;;;3.20;;
52456;SDS011;38369;52.840;7.082;2022-10-22T14:53:11;6.22;;;2.92;;
52456;SDS011;38369;52.840;7.082;2022-10-22T14:55:38;8.32;;;2.92;;
52456;SDS011;38369;52.840;7.082;2022-10-22T14:58:05;13.80;;;3.60;;
52456;SDS011;38369;52.840;7.082;2022-10-22T15:00:31;9.52;;;3.30;;
52456;SDS011;38369;52.840;7.082;2022-10-22T15:02:58;8.73;;;3.05;;
52456;SDS011;38369;52.840;7.082;2022-10-22T15:05:24;12.02;;;3.92;;
52456;SDS011;38369;52.840;7.082;2022-10-22T15:07:50;9.90;;;2.70;;
52456;SDS011;38369;52.840;7.082;2022-10-22T15:10:16;7.60;;;3.28;;
52456;SDS011;38369;52.840;7.082;2022-10-22T15:12:42;8.40;;;3.00;;
52456;SDS011;38369;52.840;7.082;2022-10-22T15:15:09;7.32;;;2.58;;
52456;SDS011;38369;52.840;7.082;2022-10-22T15:17:35;6.70;;;2.22;;
52456;SDS011;38369;52.840;7.082;2022-10-22T15:20:01;4.72;;;1.80;;
52456;SDS011;38369;52.840;7.082;2022-10-22T15:22:30;8.52;;;2.50;;
52456;SDS011;38369;52.840;7.082;2022-10-22T15:24:59;10.60;;;1.85;;
52456;SDS011;38369;52.840;7.082;2022-10-22T15:27:25;6.65;;;2.13;;
52456;SDS011;38369;52.840;7.082;2022-10-22T15:29:51;8.27;;;2.55;;
52456;SDS011;38369;52.840;7.082;2022-10-22T15:32:17;6.82;;;2.80;;
52456;SDS011;38369;52.840;7.082;2022-10-22T15:34:43;8.82;;;2.13;;
52456;SDS011;38369;52.840;7.082;2022-10-22T15:37:10;9.05;;;3.05;;
52456;SDS011;38369;52.840;7.082;2022-10-22T15:39:40;9.38;;;2.78;;
52456;SDS011;38369;52.840;7.082;2022-10-22T15:42:07;12.68;;;2.33;;
52456;SDS011;38369;52.840;7.082;2022-10-22T15:44:33;7.22;;;1.88;;
52456;SDS011;38369;52.840;7.082;2022-10-22T15:46:59;13.43;;;2.72;;
52456;SDS011;38369;52.840;7.082;2022-10-22T15:49:27;11.57;;;2.88;;
52456;SDS011;38369;52.840;7.082;2022-10-22T15:51:53;12.90;;;2.58;;
52456;SDS011;38369;52.840;7.082;2022-10-22T15:54:21;9.98;;;2.67;;
52456;SDS011;38369;52.840;7.082;2022-10-22T15:56:47;11.10;;;2.72;;
52456;SDS011;38369;52.840;7.082;2022-10-22T15:59:14;8.98;;;2.47;;
52456;SDS011;38369;52.840;7.082;2022-10-22T16:01:40;7.40;;;2.25;;
52456;SDS011;38369;52.840;7.082;2022-10-22T16:04:07;9.20;;;2.50;;
52456;SDS011;38369;52.840;7.082;2022-10-22T16:09:00;7.05;;;2.33;;